createdAt,value
2022-12-20T00:00:58.459Z,940.00
2022-12-20T00:04:59.642Z,952.00
2022-12-20T00:05:59.663Z,963.00
2022-12-20T00:06:58.703Z,940.00
2022-12-20T00:07:57.914Z,947.00
2022-12-20T00:08:57.814Z,961.00
2022-12-20T00:09:57.704Z,966.00
2022-12-20T00:10:57.624Z,967.00
2022-12-20T00:12:57.653Z,959.00
2022-12-20T00:13:57.661Z,965.00
2022-12-20T00:14:57.218Z,955.00
2022-12-20T00:15:57.329Z,972.00
2022-12-20T00:25:56.572Z,986.00
2022-12-20T00:26:56.489Z,988.00
2022-12-20T00:27:56.380Z,990.00
2022-12-20T00:28:56.296Z,988.00
2022-12-20T00:30:57.645Z,994.00
2022-12-20T00:31:56.169Z,999.00
2022-12-20T00:32:56.029Z,996.00
2022-12-20T00:33:55.939Z,984.00
2022-12-20T00:34:55.822Z,991.00
2022-12-20T00:35:56.261Z,993.00
2022-12-20T00:36:55.734Z,995.00
2022-12-20T00:37:55.736Z,1001.00
2022-12-20T00:38:55.559Z,1002.00
2022-12-20T00:39:55.475Z,987.00
2022-12-20T00:40:55.349Z,1002.00
2022-12-20T00:41:55.262Z,1005.00
2022-12-20T00:42:55.255Z,986.00
2022-12-20T00:43:55.291Z,1009.00
2022-12-20T00:44:55.096Z,1015.00
2022-12-20T00:45:54.972Z,1004.00
2022-12-20T00:46:54.933Z,1004.00
2022-12-20T00:48:54.697Z,1005.00
2022-12-20T00:52:54.304Z,1011.00
2022-12-20T01:04:53.369Z,1021.00
2022-12-20T01:05:53.791Z,1024.00
2022-12-20T01:06:53.285Z,1023.00
2022-12-20T01:07:53.280Z,1023.00
2022-12-20T01:08:53.080Z,1022.00
2022-12-20T01:09:53.021Z,1029.00
2022-12-20T01:10:52.907Z,1028.00
2022-12-20T01:11:52.791Z,1026.00
2022-12-20T01:12:52.815Z,1033.00
2022-12-20T01:15:53.225Z,1032.00
2022-12-20T01:16:52.377Z,1027.00
2022-12-20T01:19:52.053Z,1035.00
2022-12-20T01:20:52.052Z,1036.00
2022-12-20T01:22:52.242Z,1038.00
2022-12-20T01:24:51.657Z,1023.00
2022-12-20T01:25:51.660Z,1027.00
2022-12-20T01:26:51.447Z,1038.00
2022-12-20T01:27:51.455Z,1030.00
2022-12-20T01:29:51.288Z,1035.00
2022-12-20T01:30:51.182Z,1031.00
2022-12-20T01:31:51.211Z,1026.00
2022-12-20T01:33:51.336Z,1024.00
2022-12-20T01:34:50.902Z,1045.00
2022-12-20T01:35:50.797Z,1033.00
2022-12-20T01:36:50.600Z,1042.00
2022-12-20T01:37:50.520Z,1039.00
2022-12-20T01:41:50.733Z,1033.00
2022-12-20T01:43:50.265Z,1035.00
2022-12-20T01:44:50.264Z,1041.00
2022-12-20T01:45:50.021Z,1033.00
2022-12-20T01:46:49.873Z,1037.00
2022-12-20T01:47:49.751Z,1041.00
2022-12-20T01:49:49.572Z,1031.00
2022-12-20T01:50:49.487Z,1035.00
2022-12-20T01:52:49.780Z,1031.00
2022-12-20T01:53:49.301Z,1037.00
2022-12-20T01:54:49.306Z,1032.00
2022-12-20T01:55:49.313Z,1030.00
2022-12-20T01:58:48.814Z,1033.00
2022-12-20T01:59:48.725Z,1034.00
2022-12-20T02:00:48.626Z,1037.00
2022-12-20T02:03:49.255Z,1035.00
2022-12-20T02:04:49.253Z,1040.00
2022-12-20T02:05:48.779Z,1042.00
2022-12-20T02:06:48.254Z,1033.00
2022-12-20T02:07:48.057Z,1044.00
2022-12-20T02:08:47.974Z,1028.00
2022-12-20T02:09:47.850Z,1034.00
2022-12-20T02:10:47.776Z,1050.00
2022-12-20T02:11:47.656Z,1045.00
2022-12-20T02:12:47.789Z,1042.00
2022-12-20T02:13:47.788Z,1045.00
2022-12-20T02:14:47.799Z,1037.00
2022-12-20T02:15:47.816Z,1041.00
2022-12-20T02:16:47.318Z,1043.00
2022-12-20T02:17:47.324Z,1037.00
2022-12-20T02:18:47.312Z,1032.00
2022-12-20T02:25:48.282Z,1048.00
2022-12-20T02:26:47.243Z,1047.00
2022-12-20T02:27:47.250Z,1052.00
2022-12-20T03:46:40.945Z,1034.00
2022-12-20T03:47:40.528Z,1016.00
2022-12-20T03:48:40.848Z,1023.00
2022-12-20T03:49:40.347Z,1012.00
2022-12-20T03:50:40.223Z,1006.00
2022-12-20T03:52:40.390Z,1031.00
2022-12-20T03:55:40.814Z,1019.00
2022-12-20T03:56:41.330Z,1020.00
2022-12-20T03:57:39.683Z,1021.00
2022-12-20T03:58:40.317Z,1021.00
2022-12-20T03:59:39.482Z,1022.00
2022-12-20T04:00:39.788Z,1022.00
2022-12-20T04:01:39.440Z,1023.00
2022-12-20T04:02:39.400Z,1021.00
2022-12-20T04:03:39.175Z,1010.00
2022-12-20T04:04:39.011Z,1005.00
2022-12-20T04:05:38.923Z,1007.00
2022-12-20T04:06:38.818Z,1000.00
2022-12-20T04:07:38.729Z,1000.00
2022-12-20T04:08:38.619Z,993.00
2022-12-20T04:09:38.521Z,993.00
2022-12-20T04:10:38.832Z,995.00
2022-12-20T04:11:38.836Z,985.00
2022-12-20T04:12:38.357Z,998.00
2022-12-20T04:13:38.365Z,994.00
2022-12-20T04:14:38.376Z,987.00
2022-12-20T04:15:38.390Z,981.00
2022-12-20T04:16:38.458Z,981.00
2022-12-20T04:17:37.870Z,984.00
2022-12-20T04:18:37.774Z,973.00
2022-12-20T14:05:54.831Z,500.00
2022-12-20T14:06:54.745Z,500.00
2022-12-20T14:07:54.681Z,500.00
